Flight Track Log - Related Links

Times and Time Zones

All times are in EDT time to prevent confusion due to time zone crossing. See the UPS1325 flight status page for this flight to view local times or setup timezone preferences in your user account.

Time Position Orientation Groundspeed Altitude Reporting Facility
EDT Latitude Longitude Course Direction KTS MPH feet Rate Location/Type
Fri 10:13:39 PM 28.4240 -81.3267 180° South 178 205 400  Level FlightAware ADS-B
Fri 10:14:00 PM 28.4071 -81.3310 203° Southwest 205 236 1,300 2,429 Climbing FlightAware ADS-B
Fri 10:14:21 PM 28.3877 -81.3409 206° Southwest 239 275 2,100 3,300 Climbing FlightAware ADS-B
Fri 10:14:40 PM 28.3668 -81.3522 205° Southwest 249 287 3,500 4,650 Climbing FlightAware ADS-B
Fri 10:15:01 PM 28.3454 -81.3631 207° Southwest 245 282 5,200 3,805 Climbing FlightAware ADS-B
Fri 10:15:21 PM 28.3295 -81.3814 245° Southwest 272 313 6,100 2,550 Climbing FlightAware ADS-B
Fri 10:15:41 PM 28.3285 -81.4118 290° West 289 333 6,900 3,073 Climbing FlightAware ADS-B
Fri 10:16:02 PM 28.3467 -81.4335 336° Northwest 280 322 8,200 3,659 Climbing FlightAware ADS-B
Fri 10:16:22 PM 28.3721 -81.4396 351° North 280 322 9,400 2,400 Climbing FlightAware ADS-B
Fri 10:17:07 PM 28.4347 -81.4513 351° North 347 399 10,800 1,482 Climbing FlightAware ADS-B
Fri 10:17:47 PM 28.5059 -81.4641 351° North 418 481 11,500 2,188 Climbing FlightAware ADS-B
Fri 10:18:32 PM 28.5929 -81.4811 350° North 435 501 13,900 3,070 Climbing FlightAware ADS-B
Fri 10:19:13 PM 28.6745 -81.4958 351° North 450 518 15,900 3,111 Climbing FlightAware ADS-B
Fri 10:19:53 PM 28.7603 -81.5105 352° North 454 522 18,100 2,734 Climbing FlightAware ADS-B
Fri 10:20:32 PM 28.8447 -81.5245 351° North 476 548 19,500 2,122 Climbing FlightAware ADS-B
Fri 10:21:15 PM 28.9352 -81.5398 352° North 491 565 21,000 2,195 Climbing FlightAware ADS-B
Fri 10:21:54 PM 29.0277 -81.5558 351° North 500 575 22,500 2,148 Climbing FlightAware ADS-B
Fri 10:22:36 PM 29.1255 -81.5733 351° North 509 586 23,900 1,976 Climbing FlightAware ADS-B
Fri 10:23:16 PM 29.2192 -81.5907 350° North 518 596 25,200 2,538 Climbing FlightAware ADS-B
Fri 10:23:54 PM 29.3052 -81.6122 344° North 512 589 27,200 3,075 Climbing FlightAware ADS-B
Fri 10:24:36 PM 29.4033 -81.6437 345° North 503 579 29,300 2,721 Climbing FlightAware ADS-B
Fri 10:25:20 PM 29.4974 -81.6738 344° North 496 571 31,100 2,500 Climbing FlightAware ADS-B
Fri 10:26:00 PM 29.5893 -81.7035 344° North 490 564 32,800 1,835 Climbing FlightAware ADS-B
Fri 10:26:45 PM 29.6833 -81.7339 344° North 485 558 33,700 1,333 Climbing FlightAware ADS-B
Fri 10:27:30 PM 29.7836 -81.7664 344° North 489 563 34,800 1,443 Climbing FlightAware ADS-B
Fri 10:28:04 PM 29.8431 -81.7858 344° North 491 565 35,600 1,451 Climbing FlightAware ADS-B
Fri 10:29:01 PM 29.9745 -81.8285 344° North 489 563 37,000 771 Climbing FlightAware ADS-B
Fri 10:29:53 PM 30.0744 -81.8606 344° North 481 554 37,000  Level Jacksonville Center
Fri 10:30:53 PM 30.2042 -81.9022 344° North 481 554 37,000  Level Jacksonville Center
Fri 10:31:53 PM 30.3361 -81.9419 345° North 481 554 37,000  Level Jacksonville Center
Fri 10:32:53 PM 30.4658 -81.9864 344° North 490 564 37,000  Level Jacksonville Center
Fri 10:33:53 PM 30.6122 -82.0406 342° North 490 564 37,000  Level Jacksonville Center
Fri 10:34:53 PM 30.7442 -82.0828 345° North 490 564 37,000  Level Jacksonville Center
Fri 10:35:53 PM 30.8739 -82.1278 343° North 485 558 37,000  Level Jacksonville Center
Fri 10:36:53 PM 31.0058 -82.1728 344° North 485 558 37,000 -50 Level Jacksonville Center
Fri 10:37:53 PM 31.1375 -82.2153 345° North 480 552 36,900  Descending Jacksonville Center
Fri 10:38:53 PM 31.2692 -82.2606 344° North 480 552 37,000 50 Climbing Jacksonville Center
Fri 10:39:53 PM 31.4011 -82.3058 344° North 480 552 37,000  Level Jacksonville Center
Fri 10:41:43 PM 31.6414 -82.3800 345° North 495 570 37,000  Level Atlanta Center
Fri 10:42:43 PM 31.7758 -82.4264 344° North 495 570 37,000  Level Atlanta Center
Fri 10:43:43 PM 31.9056 -82.4706 344° North 495 570 37,000  Level Atlanta Center
Fri 10:44:43 PM 32.0378 -82.5150 344° North 495 570 37,000  Level Atlanta Center
Fri 10:45:43 PM 32.1678 -82.5617 343° North 495 570 37,000  Level Atlanta Center
Fri 10:46:43 PM 32.2997 -82.6039 345° North 495 570 37,000 350 Level Atlanta Center
Fri 10:47:43 PM 32.4358 -82.6508 344° North 495 570 37,700 500 Climbing Atlanta Center
Fri 10:48:43 PM 32.5636 -82.6981 343° North 490 564 38,000 150 Climbing Atlanta Center
Fri 10:49:43 PM 32.6917 -82.7431 344° North 480 552 38,000  Level Atlanta Center
Fri 10:50:43 PM 32.8214 -82.7881 344° North 480 552 38,000  Level Atlanta Center
Fri 10:51:43 PM 32.9514 -82.8333 344° North 480 552 38,000  Level Atlanta Center
Fri 10:52:43 PM 33.0833 -82.8786 344° North 480 552 38,000  Level Atlanta Center
Fri 10:53:43 PM 33.2131 -82.9264 343° North 480 552 38,000  Level Atlanta Center
Fri 10:54:43 PM 33.3325 -82.9672 344° North 480 552 38,000 50 Level Atlanta Center
Fri 10:55:43 PM 33.4644 -83.0103 345° North 480 552 38,100 50 Climbing Atlanta Center
Fri 10:56:43 PM 33.5942 -83.0561 344° North 480 552 38,100 -50 Level Atlanta Center
Fri 10:57:43 PM 33.7239 -83.1022 344° North 480 552 38,000 -50 Descending Atlanta Center
Fri 10:58:43 PM 33.8536 -83.1458 344° North 480 552 38,000  Level Atlanta Center
Fri 10:59:43 PM 33.9856 -83.1919 344° North 485 558 38,000  Level Atlanta Center
Fri 11:00:43 PM 34.1153 -83.2408 343° North 480 552 38,000  Level Atlanta Center
Fri 11:01:43 PM 34.2469 -83.2875 344° North 480 552 38,000 50 Level Atlanta Center
Fri 11:02:43 PM 34.3911 -83.3364 344° North 480 552 38,100 50 Climbing Atlanta Center
Fri 11:03:43 PM 34.5208 -83.3833 343° North 480 552 38,100 -50 Level Atlanta Center
Fri 11:04:43 PM 34.6483 -83.4303 343° North 480 552 38,000 -50 Descending Atlanta Center
Fri 11:05:43 PM 34.7761 -83.4825 341° North 480 552 38,000  Level Atlanta Center
Fri 11:06:43 PM 34.9036 -83.5297 343° North 480 552 38,000  Level Atlanta Center
Fri 11:07:43 PM 35.0331 -83.5719 345° North 480 552 38,000  Level Atlanta Center
Fri 11:08:43 PM 35.1625 -83.6222 342° North 480 552 38,000  Level Atlanta Center
Fri 11:09:43 PM 35.2900 -83.6672 344° North 480 552 38,000 50 Level Atlanta Center
Fri 11:10:43 PM 35.4153 -83.7125 344° North 480 552 38,100  Climbing Atlanta Center
Fri 11:11:43 PM 35.5428 -83.7631 342° North 480 552 38,000 -753 Descending Atlanta Center
Fri 11:22:24 PM 36.8072 -84.5763 314° West 497 572 29,300 -814 Descending FlightAware ADS-B (KMDQ)
Fri 11:22:32 PM 36.8165 -84.5884 314° West 497 572 29,200 -1,114 Descending FlightAware ADS-B (KMDQ)
Fri 11:23:34 PM 36.9171 -84.7211 313° West 501 577 28,000 -1,682 Descending FlightAware ADS-B
Fri 11:24:19 PM 36.9888 -84.8151 314° West 484 557 26,200 -2,400 Descending FlightAware ADS-B
Fri 11:26:34 PM 37.1824 -85.0719 313° West 411 473 20,800 -2,554 Descending FlightAware ADS-B
Fri 11:27:34 PM 37.2513 -85.1759 298° West 392 451 17,900 -2,672 Descending FlightAware ADS-B
Fri 11:28:33 PM 37.3000 -85.2919 297° West 368 423 15,500 -2,370 Descending FlightAware ADS-B
Fri 11:29:33 PM 37.3475 -85.4072 297° West 361 415 13,200 -1,790 Descending FlightAware ADS-B
Fri 11:30:37 PM 37.3934 -85.5213 294° West 356 410 11,800 -1,008 Descending FlightAware ADS-B
Fri 11:31:38 PM 37.4358 -85.6291 313° West 304 350 11,100 -885 Descending FlightAware ADS-B
Fri 11:32:39 PM 37.5057 -85.6691 358° North 282 325 10,000 -1,230 Descending FlightAware ADS-B
Fri 11:33:40 PM 37.5811 -85.6726 359° North 271 312 8,600 -1,537 Descending FlightAware ADS-B
Fri 11:34:40 PM 37.6597 -85.6639 12° North 272 313 6,900 -1,131 Descending FlightAware ADS-B
Fri 11:35:42 PM 37.7374 -85.6598 North 270 311 6,300 -595 Descending FlightAware ADS-B
Fri 11:36:41 PM 37.8065 -85.6582 North 251 289 5,700 -600 Descending FlightAware ADS-B
Fri 11:37:42 PM 37.8738 -85.6572 North 222 255 5,100 -545 Descending FlightAware ADS-B
Fri 11:38:42 PM 37.9303 -85.6646 347° North 185 213 4,600 -600 Descending FlightAware ADS-B
Fri 11:39:42 PM 37.9795 -85.6806 345° North 187 215 3,900 -850 Descending FlightAware ADS-B
Fri 11:40:42 PM 38.0299 -85.6972 345° North 184 212 2,900 -966 Descending FlightAware ADS-B
Fri 11:41:40 PM 38.0670 -85.7093 345° North 169 194 2,000 -857 Descending FlightAware ADS-B
Fri 11:42:41 PM 38.1173 -85.7259 346° North 149 171 1,200 -787 Descending FlightAware ADS-B
Fri 11:49:00 PM 38.1741 -85.7365 293° West  Level Estimated

Login

Don't have an account? Register now (free) for customized features, flight alerts, and more!